Time;durP1;ratioP1;P1;durP2;ratioP2;P2;SDS_P1;SDS_P2;PMS_P1;PMS_P2;Temp;Humidity;BMP_temperature;BMP_pressure;BME280_temperature;BME280_humidity;BME280_pressure;Samples;Min_cycle;Max_cycle;Signal;HPM_P1;HPM_P2
2021/05/22 00:01:02;;;;;;;0.10;0.10;;;;;;;;;;5126258;28;20511;-67
2021/05/22 00:03:28;;;;;;;0.10;0.10;;;;;;;;;;5125783;28;20206;-66
2021/05/22 00:05:53;;;;;;;0.10;0.10;;;;;;;;;;5126156;28;20208;-68
2021/05/22 00:08:19;;;;;;;0.10;0.10;;;;;;;;;;5126265;28;20222;-67
2021/05/22 00:10:45;;;;;;;0.10;0.10;;;;;;;;;;5126126;28;20263;-68
2021/05/22 00:13:11;;;;;;;0.10;0.10;;;;;;;;;;5125147;28;20274;-68
2021/05/22 00:15:37;;;;;;;0.10;0.10;;;;;;;;;;5125619;28;20208;-68
2021/05/22 00:18:04;;;;;;;0.10;0.10;;;;;;;;;;5125928;28;20217;-68
2021/05/22 00:20:29;;;;;;;0.10;0.10;;;;;;;;;;5126017;28;20225;-67
2021/05/22 00:22:55;;;;;;;0.10;0.10;;;;;;;;;;5128801;27;20203;-67
2021/05/22 00:25:21;;;;;;;0.10;0.10;;;;;;;;;;5126050;28;20212;-68
2021/05/22 00:27:47;;;;;;;0.10;0.10;;;;;;;;;;5125895;28;20198;-68
2021/05/22 00:30:13;;;;;;;0.10;0.10;;;;;;;;;;5125874;28;20308;-67
2021/05/22 00:32:40;;;;;;;0.10;0.10;;;;;;;;;;5125585;28;20512;-67
2021/05/22 00:35:06;;;;;;;0.10;0.10;;;;;;;;;;5126154;28;20386;-68
2021/05/22 00:37:32;;;;;;;0.10;0.10;;;;;;;;;;5125346;28;20226;-68
2021/05/22 00:39:58;;;;;;;0.10;0.10;;;;;;;;;;5125705;28;20204;-66
2021/05/22 00:42:24;;;;;;;0.10;0.10;;;;;;;;;;5125837;28;20385;-70
2021/05/22 00:45:03;;;;;;;0.10;0.10;;;;;;;;;;5125354;28;20241;-67
2021/05/22 00:47:29;;;;;;;0.10;0.10;;;;;;;;;;5125719;28;20221;-67
2021/05/22 00:49:56;;;;;;;0.10;0.10;;;;;;;;;;5118830;28;20232;-67
2021/05/22 00:52:22;;;;;;;0.10;0.10;;;;;;;;;;5125470;28;20226;-67
2021/05/22 00:54:48;;;;;;;0.10;0.10;;;;;;;;;;5125360;28;20205;-67
2021/05/22 00:57:14;;;;;;;0.10;0.10;;;;;;;;;;5125469;28;20204;-67
2021/05/22 00:59:40;;;;;;;0.10;0.10;;;;;;;;;;5125162;28;20499;-67
2021/05/22 01:02:05;;;;;;;0.10;0.10;;;;;;;;;;5125341;28;20205;-68
2021/05/22 01:04:31;;;;;;;0.10;0.10;;;;;;;;;;5125028;28;20207;-68
2021/05/22 01:06:58;;;;;;;0.10;0.10;;;;;;;;;;5124920;28;20485;-67
2021/05/22 01:09:24;;;;;;;0.10;0.10;;;;;;;;;;5124909;28;20207;-67
2021/05/22 01:11:54;;;;;;;0.10;0.10;;;;;;;;;;5125071;28;20218;-67
2021/05/22 01:14:21;;;;;;;0.10;0.10;;;;;;;;;;5124811;28;20213;-67
2021/05/22 01:16:48;;;;;;;0.10;0.10;;;;;;;;;;5124917;28;20401;-66
2021/05/22 01:19:18;;;;;;;0.10;0.10;;;;;;;;;;5123885;28;20202;-67
2021/05/22 01:21:44;;;;;;;0.10;0.10;;;;;;;;;;5124852;28;20552;-67
2021/05/22 01:24:12;;;;;;;0.10;0.10;;;;;;;;;;5124848;28;20234;-67
2021/05/22 01:26:40;;;;;;;0.10;0.10;;;;;;;;;;5124864;28;20206;-67
2021/05/22 01:29:06;;;;;;;0.10;0.10;;;;;;;;;;5124615;27;20206;-67
2021/05/22 01:31:32;;;;;;;0.10;0.10;;;;;;;;;;5124825;28;20583;-67
2021/05/22 01:33:58;;;;;;;0.10;0.10;;;;;;;;;;5122020;28;20202;-67
2021/05/22 01:36:24;;;;;;;0.10;0.10;;;;;;;;;;5124601;28;20209;-67
2021/05/22 01:38:49;;;;;;;0.10;0.10;;;;;;;;;;5124436;28;20243;-67
2021/05/22 01:41:15;;;;;;;0.10;0.10;;;;;;;;;;5124536;28;20224;-67
2021/05/22 01:43:43;;;;;;;0.10;0.10;;;;;;;;;;5124273;28;20238;-67
2021/05/22 01:46:09;;;;;;;0.10;0.10;;;;;;;;;;5112941;28;20202;-67
2021/05/22 01:48:35;;;;;;;0.10;0.10;;;;;;;;;;5124199;28;20209;-67
2021/05/22 01:51:04;;;;;;;0.10;0.10;;;;;;;;;;5124100;28;20229;-68
2021/05/22 01:53:30;;;;;;;0.10;0.10;;;;;;;;;;5123800;28;20400;-68
2021/05/22 01:55:56;;;;;;;0.10;0.10;;;;;;;;;;5124397;28;20201;-68
2021/05/22 01:58:22;;;;;;;0.10;0.10;;;;;;;;;;5124103;28;20211;-68
2021/05/22 02:00:49;;;;;;;0.10;0.10;;;;;;;;;;5124317;28;20205;-67
2021/05/22 02:03:17;;;;;;;0.10;0.10;;;;;;;;;;5123894;27;20209;-67
2021/05/22 02:05:45;;;;;;;0.10;0.10;;;;;;;;;;5124166;28;20281;-67
2021/05/22 02:08:13;;;;;;;0.10;0.10;;;;;;;;;;5124094;28;20243;-67
2021/05/22 02:10:39;;;;;;;0.10;0.10;;;;;;;;;;5123973;28;20244;-67
2021/05/22 02:13:05;;;;;;;0.10;0.10;;;;;;;;;;5119860;28;20506;-67
2021/05/22 02:15:31;;;;;;;0.10;0.10;;;;;;;;;;5123184;28;20205;-67
2021/05/22 02:17:58;;;;;;;0.10;0.10;;;;;;;;;;5121410;28;20207;-67
2021/05/22 02:20:25;;;;;;;0.10;0.10;;;;;;;;;;5124020;28;20205;-67
2021/05/22 02:22:51;;;;;;;0.10;0.10;;;;;;;;;;5123565;28;20448;-67
2021/05/22 02:25:18;;;;;;;0.10;0.10;;;;;;;;;;5118597;28;20252;-68
2021/05/22 02:27:44;;;;;;;0.10;0.10;;;;;;;;;;5113838;28;20200;-67
2021/05/22 02:30:11;;;;;;;0.10;0.10;;;;;;;;;;5124014;28;20204;-68
2021/05/22 02:32:37;;;;;;;0.10;0.10;;;;;;;;;;5123232;28;20277;-67
2021/05/22 02:35:05;;;;;;;0.10;0.10;;;;;;;;;;5123818;28;20203;-67
2021/05/22 02:37:32;;;;;;;0.10;0.10;;;;;;;;;;5123713;28;20514;-67
2021/05/22 02:39:59;;;;;;;0.10;0.10;;;;;;;;;;5123984;28;20264;-67
2021/05/22 02:42:26;;;;;;;0.10;0.10;;;;;;;;;;5122176;28;20212;-67
2021/05/22 02:44:52;;;;;;;0.10;0.10;;;;;;;;;;5123296;28;20212;-67
2021/05/22 02:47:19;;;;;;;0.10;0.10;;;;;;;;;;5123322;28;20466;-67
2021/05/22 02:49:46;;;;;;;0.10;0.10;;;;;;;;;;5119465;28;20207;-67
2021/05/22 02:52:14;;;;;;;0.10;0.10;;;;;;;;;;5123170;28;20224;-67
2021/05/22 02:54:41;;;;;;;0.10;0.10;;;;;;;;;;5123613;28;20202;-67
2021/05/22 02:57:08;;;;;;;0.10;0.10;;;;;;;;;;5123690;28;20208;-67
2021/05/22 02:59:34;;;;;;;0.10;0.10;;;;;;;;;;5123180;28;20214;-66
2021/05/22 03:02:01;;;;;;;0.10;0.10;;;;;;;;;;5123556;28;20399;-66
2021/05/22 03:04:27;;;;;;;0.10;0.10;;;;;;;;;;5123236;28;20274;-67
2021/05/22 03:06:53;;;;;;;0.10;0.10;;;;;;;;;;5123794;28;20198;-66
2021/05/22 03:09:19;;;;;;;1.73;1.63;;;;;;;;;;5123256;28;20213;-66
2021/05/22 03:11:45;;;;;;;0.10;0.10;;;;;;;;;;5123226;28;20406;-66
2021/05/22 03:14:11;;;;;;;0.10;0.10;;;;;;;;;;5123513;28;20212;-67
2021/05/22 03:16:37;;;;;;;0.10;0.10;;;;;;;;;;5123226;28;20283;-66
2021/05/22 03:19:03;;;;;;;0.10;0.10;;;;;;;;;;5117921;28;20227;-67
2021/05/22 03:21:30;;;;;;;0.10;0.10;;;;;;;;;;5123406;28;20208;-67
2021/05/22 03:23:56;;;;;;;0.10;0.10;;;;;;;;;;5123614;28;20325;-66
2021/05/22 03:26:22;;;;;;;0.10;0.10;;;;;;;;;;5123068;28;20204;-66
2021/05/22 03:28:48;;;;;;;0.10;0.10;;;;;;;;;;5108736;28;20201;-67
2021/05/22 03:31:14;;;;;;;0.10;0.10;;;;;;;;;;5122844;28;20229;-68
2021/05/22 03:33:40;;;;;;;0.10;0.10;;;;;;;;;;5122911;28;20229;-68
2021/05/22 03:36:06;;;;;;;0.10;0.10;;;;;;;;;;5122882;28;20206;-66
2021/05/22 03:38:31;;;;;;;0.10;0.10;;;;;;;;;;5123100;28;20267;-67
2021/05/22 03:40:57;;;;;;;0.10;0.10;;;;;;;;;;5123077;28;20205;-68
2021/05/22 03:43:24;;;;;;;0.10;0.10;;;;;;;;;;5125731;28;20258;-67
2021/05/22 03:45:49;;;;;;;0.10;0.10;;;;;;;;;;5126591;28;20208;-66
2021/05/22 03:48:15;;;;;;;0.10;0.10;;;;;;;;;;5135958;27;20241;-67
2021/05/22 03:50:41;;;;;;;0.10;0.10;;;;;;;;;;5126692;27;20492;-66
2021/05/22 03:53:08;;;;;;;0.10;0.10;;;;;;;;;;5126757;28;20223;-67
2021/05/22 03:55:33;;;;;;;0.10;0.10;;;;;;;;;;5126497;28;20218;-67
2021/05/22 03:57:59;;;;;;;0.10;0.10;;;;;;;;;;5125608;28;20397;-67
2021/05/22 04:00:26;;;;;;;0.10;0.10;;;;;;;;;;5125670;28;20641;-67
2021/05/22 04:02:52;;;;;;;0.10;0.10;;;;;;;;;;5125546;28;20427;-68
2021/05/22 04:05:17;;;;;;;0.10;0.10;;;;;;;;;;5125913;28;20201;-67
2021/05/22 04:07:43;;;;;;;0.10;0.10;;;;;;;;;;5126184;28;20212;-68
2021/05/22 04:10:10;;;;;;;0.10;0.10;;;;;;;;;;5126200;28;20199;-67
2021/05/22 04:12:35;;;;;;;0.10;0.10;;;;;;;;;;5125944;28;20229;-67
2021/05/22 04:15:01;;;;;;;0.10;0.10;;;;;;;;;;5126343;27;20209;-67
2021/05/22 04:17:28;;;;;;;0.10;0.10;;;;;;;;;;5125822;28;20249;-67
2021/05/22 04:19:54;;;;;;;0.10;0.10;;;;;;;;;;5126047;28;20261;-68
2021/05/22 04:22:19;;;;;;;0.10;0.10;;;;;;;;;;5126020;28;20298;-68
2021/05/22 04:24:45;;;;;;;0.10;0.10;;;;;;;;;;5126061;28;20228;-67
2021/05/22 04:27:11;;;;;;;0.10;0.10;;;;;;;;;;5126076;28;20200;-67
2021/05/22 04:29:37;;;;;;;0.10;0.10;;;;;;;;;;5126131;28;20491;-67
2021/05/22 04:32:03;;;;;;;0.10;0.10;;;;;;;;;;5125904;28;20233;-67
2021/05/22 04:34:29;;;;;;;0.10;0.10;;;;;;;;;;5118747;28;20272;-67
2021/05/22 04:36:55;;;;;;;0.10;0.10;;;;;;;;;;5119519;28;20220;-68
2021/05/22 04:39:21;;;;;;;0.10;0.10;;;;;;;;;;5113622;28;20200;-68
2021/05/22 04:41:47;;;;;;;0.10;0.10;;;;;;;;;;5125616;28;20205;-68
2021/05/22 04:44:13;;;;;;;0.10;0.10;;;;;;;;;;5125390;28;20212;-69
2021/05/22 04:46:39;;;;;;;0.10;0.10;;;;;;;;;;5125390;28;20207;-68
2021/05/22 04:49:05;;;;;;;0.10;0.10;;;;;;;;;;5127635;27;20269;-68
2021/05/22 04:51:31;;;;;;;0.10;0.10;;;;;;;;;;5132056;27;20225;-68
2021/05/22 04:54:00;;;;;;;0.10;0.10;;;;;;;;;;5124204;28;20213;-68
2021/05/22 04:56:26;;;;;;;0.10;0.10;;;;;;;;;;5125520;28;20433;-68
2021/05/22 04:58:52;;;;;;;0.10;0.10;;;;;;;;;;5125396;28;20208;-67
2021/05/22 05:01:17;;;;;;;0.10;0.10;;;;;;;;;;5122071;28;20197;-69
2021/05/22 05:03:43;;;;;;;0.10;0.10;;;;;;;;;;5125442;28;20503;-68
2021/05/22 05:06:09;;;;;;;0.10;0.10;;;;;;;;;;5110421;28;20534;-68
2021/05/22 05:08:36;;;;;;;0.10;0.10;;;;;;;;;;5125304;28;20239;-69
2021/05/22 05:11:01;;;;;;;0.10;0.10;;;;;;;;;;5129008;27;20232;-69
2021/05/22 05:13:27;;;;;;;0.10;0.10;;;;;;;;;;5125144;28;20384;-68
2021/05/22 05:15:53;;;;;;;0.10;0.10;;;;;;;;;;5125072;28;20558;-67
2021/05/22 05:18:18;;;;;;;0.10;0.10;;;;;;;;;;5124650;28;20256;-67
2021/05/22 05:20:44;;;;;;;0.10;0.10;;;;;;;;;;5130418;27;20480;-68
2021/05/22 05:23:10;;;;;;;0.10;0.10;;;;;;;;;;5124768;28;20205;-67
2021/05/22 05:25:36;;;;;;;0.10;0.10;;;;;;;;;;5114658;28;20204;-67
2021/05/22 05:28:02;;;;;;;0.10;0.10;;;;;;;;;;5124800;28;20206;-69
2021/05/22 05:30:28;;;;;;;0.10;0.10;;;;;;;;;;5126731;27;20531;-68
2021/05/22 05:32:54;;;;;;;0.10;0.10;;;;;;;;;;5124836;28;20241;-67
2021/05/22 05:35:20;;;;;;;0.10;0.10;;;;;;;;;;5124625;28;20394;-67
2021/05/22 05:37:45;;;;;;;0.10;0.10;;;;;;;;;;5124378;28;20497;-67
2021/05/22 05:40:11;;;;;;;0.10;0.10;;;;;;;;;;5124330;28;20211;-67
2021/05/22 05:42:38;;;;;;;0.10;0.10;;;;;;;;;;5124223;28;20296;-67
2021/05/22 05:45:04;;;;;;;0.10;0.10;;;;;;;;;;5124122;28;20560;-67
2021/05/22 05:47:30;;;;;;;0.10;0.10;;;;;;;;;;5124272;28;20204;-68
2021/05/22 05:49:56;;;;;;;0.10;0.10;;;;;;;;;;5124409;27;20243;-67
2021/05/22 05:52:21;;;;;;;0.10;0.10;;;;;;;;;;5126802;27;20225;-67
2021/05/22 05:54:47;;;;;;;0.10;0.10;;;;;;;;;;5127841;27;20206;-67
2021/05/22 05:57:13;;;;;;;0.10;0.10;;;;;;;;;;5124377;28;20269;-67
2021/05/22 05:59:39;;;;;;;0.10;0.10;;;;;;;;;;5124009;28;20205;-68
2021/05/22 06:02:05;;;;;;;0.10;0.10;;;;;;;;;;5124365;28;20262;-66
2021/05/22 06:04:31;;;;;;;0.10;0.10;;;;;;;;;;5123810;28;20507;-67
2021/05/22 06:06:57;;;;;;;0.10;0.10;;;;;;;;;;5129391;27;20197;-66
2021/05/22 06:09:22;;;;;;;0.10;0.10;;;;;;;;;;5129319;27;20494;-66
2021/05/22 06:11:48;;;;;;;0.10;0.10;;;;;;;;;;5129266;27;20225;-67
2021/05/22 06:14:16;;;;;;;0.10;0.10;;;;;;;;;;5130461;27;20199;-67
2021/05/22 06:16:43;;;;;;;0.10;0.10;;;;;;;;;;5129403;27;20201;-66
2021/05/22 06:19:09;;;;;;;0.10;0.10;;;;;;;;;;5126506;27;20243;-67
2021/05/22 06:21:37;;;;;;;0.10;0.10;;;;;;;;;;5130716;28;20202;-68
2021/05/22 06:24:04;;;;;;;0.10;0.10;;;;;;;;;;5129625;27;20198;-67
2021/05/22 06:26:30;;;;;;;0.10;0.10;;;;;;;;;;5130059;27;20430;-67
2021/05/22 06:28:55;;;;;;;0.10;0.10;;;;;;;;;;5126075;27;20245;-67
2021/05/22 06:31:21;;;;;;;0.10;0.10;;;;;;;;;;5128663;28;20230;-66
2021/05/22 06:33:48;;;;;;;0.10;0.10;;;;;;;;;;5124480;27;20194;-66
2021/05/22 06:36:13;;;;;;;0.10;0.10;;;;;;;;;;5134157;28;20210;-66
2021/05/22 06:38:39;;;;;;;0.10;0.10;;;;;;;;;;5133155;28;20485;-67
2021/05/22 06:41:05;;;;;;;0.10;0.10;;;;;;;;;;5129095;28;20222;-68
2021/05/22 06:43:30;;;;;;;0.10;0.10;;;;;;;;;;5125472;28;20263;-66
2021/05/22 06:45:59;;;;;;;0.10;0.10;;;;;;;;;;5129463;28;20225;-67
2021/05/22 06:48:25;;;;;;;0.10;0.10;;;;;;;;;;5126300;28;20205;-67
2021/05/22 06:50:52;;;;;;;0.10;0.10;;;;;;;;;;5127564;28;20201;-67
2021/05/22 06:53:17;;;;;;;0.10;0.10;;;;;;;;;;5126822;27;20211;-66
2021/05/22 06:55:43;;;;;;;0.10;0.10;;;;;;;;;;5121086;28;20202;-68
2021/05/22 06:58:10;;;;;;;0.10;0.10;;;;;;;;;;5128060;28;20208;-68
2021/05/22 07:00:35;;;;;;;0.10;0.10;;;;;;;;;;5132581;28;20232;-67
2021/05/22 07:03:01;;;;;;;0.10;0.10;;;;;;;;;;5122375;27;20209;-67
2021/05/22 07:05:27;;;;;;;0.10;0.10;;;;;;;;;;5119126;28;20203;-68
2021/05/22 07:07:55;;;;;;;0.10;0.10;;;;;;;;;;5125248;28;20274;-66
2021/05/22 07:10:21;;;;;;;0.10;0.10;;;;;;;;;;5126197;28;20209;-67
2021/05/22 07:12:46;;;;;;;0.10;0.10;;;;;;;;;;5123046;28;20558;-68
2021/05/22 07:15:12;;;;;;;0.10;0.10;;;;;;;;;;5124866;28;20531;-68
2021/05/22 07:17:38;;;;;;;0.10;0.10;;;;;;;;;;5126590;27;20206;-68
2021/05/22 07:20:05;;;;;;;0.10;0.10;;;;;;;;;;5130401;27;20274;-68
2021/05/22 07:22:31;;;;;;;0.10;0.10;;;;;;;;;;5139435;27;20198;-67
2021/05/22 07:24:57;;;;;;;0.10;0.10;;;;;;;;;;5135914;27;20261;-69
2021/05/22 07:27:23;;;;;;;0.10;0.10;;;;;;;;;;5129307;27;20214;-67
2021/05/22 07:29:51;;;;;;;0.10;0.10;;;;;;;;;;5133845;27;20207;-68
2021/05/22 07:32:17;;;;;;;0.10;0.10;;;;;;;;;;5128959;27;20517;-66
2021/05/22 07:34:42;;;;;;;0.10;0.10;;;;;;;;;;5131942;27;20211;-66
2021/05/22 07:37:08;;;;;;;0.10;0.10;;;;;;;;;;5133276;27;20202;-66
2021/05/22 07:39:34;;;;;;;0.10;0.10;;;;;;;;;;5135888;27;20203;-67
2021/05/22 07:42:00;;;;;;;0.10;0.10;;;;;;;;;;5128964;27;20198;-67
2021/05/22 07:44:27;;;;;;;0.10;0.10;;;;;;;;;;5123652;28;20211;-68
2021/05/22 07:46:52;;;;;;;0.10;0.10;;;;;;;;;;5133845;27;20210;-67
2021/05/22 07:49:18;;;;;;;0.10;0.10;;;;;;;;;;5127079;27;20199;-67
2021/05/22 07:51:45;;;;;;;0.10;0.10;;;;;;;;;;5131060;27;20251;-69
2021/05/22 07:54:11;;;;;;;0.10;0.10;;;;;;;;;;5125529;27;20203;-67
2021/05/22 07:56:37;;;;;;;0.10;0.10;;;;;;;;;;5126606;28;20528;-66
2021/05/22 07:59:03;;;;;;;0.10;0.10;;;;;;;;;;5126546;28;20206;-61
2021/05/22 08:01:30;;;;;;;0.10;0.10;;;;;;;;;;5120627;27;20369;-61
2021/05/22 08:03:56;;;;;;;0.10;0.10;;;;;;;;;;5128308;27;20253;-61
2021/05/22 08:06:21;;;;;;;0.10;0.10;;;;;;;;;;5127886;27;20208;-61
2021/05/22 08:08:47;;;;;;;0.10;0.10;;;;;;;;;;5139773;27;20206;-60
2021/05/22 08:11:13;;;;;;;0.10;0.10;;;;;;;;;;5128855;27;20518;-63
2021/05/22 08:13:39;;;;;;;0.10;0.10;;;;;;;;;;5126202;28;20207;-63
2021/05/22 08:16:06;;;;;;;0.10;0.10;;;;;;;;;;5133384;27;20233;-63
2021/05/22 08:18:32;;;;;;;0.10;0.10;;;;;;;;;;5132323;27;20425;-62
2021/05/22 08:20:58;;;;;;;0.10;0.10;;;;;;;;;;5126137;27;20206;-62
2021/05/22 08:23:23;;;;;;;0.10;0.10;;;;;;;;;;5125106;28;20249;-64
2021/05/22 08:25:49;;;;;;;0.10;0.10;;;;;;;;;;5127593;27;20220;-63
2021/05/22 08:28:20;;;;;;;0.10;0.10;;;;;;;;;;5133914;27;20201;-63
2021/05/22 08:30:46;;;;;;;0.10;0.10;;;;;;;;;;5125751;28;20197;-63
2021/05/22 08:33:13;;;;;;;0.10;0.10;;;;;;;;;;5124205;28;20232;-63
2021/05/22 08:35:39;;;;;;;0.10;0.10;;;;;;;;;;5131323;27;20235;-63
2021/05/22 08:38:04;;;;;;;0.00;0.00;;;;;;;;;;5125551;28;20205;-63
2021/05/22 08:40:30;;;;;;;0.10;0.10;;;;;;;;;;5133421;27;20204;-63
2021/05/22 08:42:56;;;;;;;0.10;0.10;;;;;;;;;;5133692;27;20265;-63
2021/05/22 08:45:23;;;;;;;0.10;0.10;;;;;;;;;;5115205;27;20209;-62
2021/05/22 08:47:50;;;;;;;0.10;0.10;;;;;;;;;;5119790;27;20498;-62
2021/05/22 08:50:17;;;;;;;0.10;0.10;;;;;;;;;;5133765;27;20241;-63
2021/05/22 08:52:43;;;;;;;0.10;0.10;;;;;;;;;;5132530;27;20522;-63
2021/05/22 08:55:09;;;;;;;0.10;0.10;;;;;;;;;;5126342;27;20219;-65
2021/05/22 08:57:35;;;;;;;0.10;0.10;;;;;;;;;;5129644;27;20413;-62
2021/05/22 09:00:01;;;;;;;0.10;0.10;;;;;;;;;;5126546;27;20206;-62
2021/05/22 09:02:27;;;;;;;0.10;0.10;;;;;;;;;;5120704;28;20201;-63
2021/05/22 09:05:07;;;;;;;0.10;0.10;;;;;;;;;;5124885;28;20489;-63
2021/05/22 09:07:34;;;;;;;0.10;0.10;;;;;;;;;;5131968;27;20207;-63
2021/05/22 09:10:05;;;;;;;0.10;0.10;;;;;;;;;;5122594;27;20213;-63
2021/05/22 09:12:33;;;;;;;0.10;0.10;;;;;;;;;;5124721;28;20215;-63
2021/05/22 09:14:59;;;;;;;0.10;0.10;;;;;;;;;;5124806;28;20218;-63
2021/05/22 09:17:24;;;;;;;0.03;0.03;;;;;;;;;;5125053;28;20205;-62
2021/05/22 09:19:50;;;;;;;0.10;0.10;;;;;;;;;;5124939;28;20227;-63
2021/05/22 09:22:20;;;;;;;0.10;0.10;;;;;;;;;;5121797;27;20451;-62
2021/05/22 09:24:59;;;;;;;0.10;0.10;;;;;;;;;;5124275;28;20223;-62
2021/05/22 09:27:29;;;;;;;0.10;0.10;;;;;;;;;;5125053;28;20217;-62
2021/05/22 09:29:55;;;;;;;0.10;0.10;;;;;;;;;;5124927;28;20204;-62
2021/05/22 09:32:21;;;;;;;0.00;0.00;;;;;;;;;;5124188;28;20573;-62
2021/05/22 09:34:48;;;;;;;0.10;0.10;;;;;;;;;;5124809;28;20202;-62
2021/05/22 09:37:16;;;;;;;0.10;0.10;;;;;;;;;;5124883;28;20208;-62
2021/05/22 09:39:46;;;;;;;0.10;0.10;;;;;;;;;;5124064;28;20217;-61
2021/05/22 09:42:12;;;;;;;0.10;0.10;;;;;;;;;;5124558;28;20198;-61
2021/05/22 09:44:38;;;;;;;0.10;0.10;;;;;;;;;;5124429;28;20272;-63
2021/05/22 09:47:04;;;;;;;0.10;0.10;;;;;;;;;;5124796;28;20519;-63
2021/05/22 09:49:32;;;;;;;0.00;0.00;;;;;;;;;;5119546;28;20204;-63
2021/05/22 09:51:59;;;;;;;0.10;0.10;;;;;;;;;;5119614;28;20554;-63
2021/05/22 09:54:42;;;;;;;0.10;0.10;;;;;;;;;;5122310;28;20204;-63
2021/05/22 09:57:09;;;;;;;0.03;0.03;;;;;;;;;;5116444;28;20201;-64
2021/05/22 09:59:36;;;;;;;0.07;0.07;;;;;;;;;;5124264;28;20235;-66
2021/05/22 10:02:02;;;;;;;0.10;0.10;;;;;;;;;;5124311;28;20231;-63
2021/05/22 10:04:28;;;;;;;0.00;0.00;;;;;;;;;;5124126;28;20371;-63
2021/05/22 10:06:56;;;;;;;0.07;0.07;;;;;;;;;;5124168;28;20270;-65
2021/05/22 10:09:22;;;;;;;0.10;0.10;;;;;;;;;;5123860;28;20201;-64
2021/05/22 10:12:05;;;;;;;0.10;0.10;;;;;;;;;;5124138;28;20247;-64
2021/05/22 10:14:32;;;;;;;0.13;0.13;;;;;;;;;;5123928;28;20230;-63
2021/05/22 10:16:59;;;;;;;0.10;0.10;;;;;;;;;;5125379;27;20458;-65
2021/05/22 10:19:26;;;;;;;0.10;0.10;;;;;;;;;;5129957;27;20208;-65
2021/05/22 10:21:52;;;;;;;0.00;0.00;;;;;;;;;;5127814;27;20201;-68
2021/05/22 10:24:18;;;;;;;0.10;0.10;;;;;;;;;;5123952;28;20209;-67
2021/05/22 10:26:44;;;;;;;0.10;0.10;;;;;;;;;;5123797;28;20215;-67
2021/05/22 10:29:10;;;;;;;0.10;0.10;;;;;;;;;;5120330;28;20198;-69
2021/05/22 10:31:40;;;;;;;0.10;0.10;;;;;;;;;;5131426;27;20297;-67
2021/05/22 10:34:10;;;;;;;0.10;0.10;;;;;;;;;;5125272;27;20248;-64
2021/05/22 10:36:47;;;;;;;0.00;0.00;;;;;;;;;;5126225;27;20205;-71
2021/05/22 10:39:27;;;;;;;0.10;0.10;;;;;;;;;;5123601;28;20202;-65
2021/05/22 10:41:53;;;;;;;0.10;0.10;;;;;;;;;;5124179;28;20269;-67
2021/05/22 10:44:26;;;;;;;0.10;0.10;;;;;;;;;;5123363;28;20234;-65
2021/05/22 10:47:05;;;;;;;0.10;0.10;;;;;;;;;;5121012;28;20292;-68
2021/05/22 10:49:48;;;;;;;0.10;0.10;;;;;;;;;;5130373;28;20506;-67
2021/05/22 10:52:18;;;;;;;0.10;0.10;;;;;;;;;;5126696;27;20259;-67
2021/05/22 10:54:56;;;;;;;0.10;0.10;;;;;;;;;;5124489;27;20239;-67
2021/05/22 10:57:22;;;;;;;0.10;0.10;;;;;;;;;;5127785;28;20300;-67
2021/05/22 11:00:02;;;;;;;0.10;0.10;;;;;;;;;;5134411;27;20334;-64
2021/05/22 11:02:34;;;;;;;0.10;0.10;;;;;;;;;;5130065;27;20199;-66
2021/05/22 11:05:32;;;;;;;0.30;0.30;;;;;;;;;;5130753;27;20268;-64
2021/05/22 11:08:12;;;;;;;0.00;0.00;;;;;;;;;;5129543;27;20227;-66
2021/05/22 11:10:39;;;;;;;0.10;0.10;;;;;;;;;;5129854;27;20285;-67
2021/05/22 11:13:05;;;;;;;0.00;0.00;;;;;;;;;;5133919;27;20221;-66
2021/05/22 11:15:40;;;;;;;0.10;0.10;;;;;;;;;;5132658;27;20205;-64
2021/05/22 11:18:06;;;;;;;0.10;0.10;;;;;;;;;;5126314;28;20194;-64
2021/05/22 11:20:33;;;;;;;0.10;0.10;;;;;;;;;;5130025;27;20247;-65
2021/05/22 11:23:01;;;;;;;0.10;0.10;;;;;;;;;;5132928;27;20216;-66
2021/05/22 11:25:29;;;;;;;0.10;0.10;;;;;;;;;;5134834;27;20264;-64
2021/05/22 11:27:58;;;;;;;0.10;0.10;;;;;;;;;;5127712;27;20272;-64
2021/05/22 11:30:41;;;;;;;0.10;0.10;;;;;;;;;;5125985;27;20198;-65
2021/05/22 11:33:08;;;;;;;0.00;0.00;;;;;;;;;;5126099;27;20227;-64
2021/05/22 11:35:36;;;;;;;0.10;0.10;;;;;;;;;;5130138;27;20206;-65
2021/05/22 11:38:37;;;;;;;0.10;0.10;;;;;;;;;;5127933;27;20208;-66
2021/05/22 11:41:04;;;;;;;0.10;0.10;;;;;;;;;;5046556;28;20520;-66
2021/05/22 11:43:31;;;;;;;0.00;0.00;;;;;;;;;;5045106;28;20207;-64
2021/05/22 11:45:58;;;;;;;0.10;0.10;;;;;;;;;;5084911;28;20209;-71
2021/05/22 11:48:24;;;;;;;0.07;0.07;;;;;;;;;;5126514;28;20272;-68
2021/05/22 11:50:52;;;;;;;0.00;0.00;;;;;;;;;;5127289;28;20226;-67
2021/05/22 11:53:18;;;;;;;0.10;0.10;;;;;;;;;;5127833;27;20261;-70
2021/05/22 11:55:44;;;;;;;0.10;0.10;;;;;;;;;;5130994;27;20200;-70
2021/05/22 11:58:11;;;;;;;0.03;0.03;;;;;;;;;;5126855;28;20265;-70
2021/05/22 12:00:37;;;;;;;0.50;0.50;;;;;;;;;;5133345;27;20203;-71
2021/05/22 12:03:03;;;;;;;0.10;0.10;;;;;;;;;;5129069;27;20521;-72
2021/05/22 12:05:36;;;;;;;0.00;0.00;;;;;;;;;;5126510;28;20204;-71
2021/05/22 12:08:03;;;;;;;0.03;0.03;;;;;;;;;;5129433;27;20226;-71
2021/05/22 12:10:30;;;;;;;0.07;0.07;;;;;;;;;;5128607;27;20208;-68
2021/05/22 12:12:59;;;;;;;0.10;0.10;;;;;;;;;;5126463;27;20521;-68
2021/05/22 12:15:27;;;;;;;0.10;0.10;;;;;;;;;;5133415;27;20207;-69
2021/05/22 12:17:54;;;;;;;0.03;0.03;;;;;;;;;;5127224;27;20214;-69
2021/05/22 12:20:19;;;;;;;0.10;0.10;;;;;;;;;;5129569;27;20210;-72
2021/05/22 12:22:45;;;;;;;0.10;0.10;;;;;;;;;;5124656;28;20390;-70
2021/05/22 12:25:13;;;;;;;0.00;0.00;;;;;;;;;;5132079;27;20204;-73
2021/05/22 12:27:39;;;;;;;0.40;0.20;;;;;;;;;;5128670;27;20203;-71
2021/05/22 12:30:05;;;;;;;0.00;0.00;;;;;;;;;;5131703;27;20207;-70
2021/05/22 12:32:31;;;;;;;0.10;0.10;;;;;;;;;;5125639;27;20515;-71
2021/05/22 12:34:57;;;;;;;0.10;0.10;;;;;;;;;;5136581;27;20251;-72
2021/05/22 12:37:23;;;;;;;0.10;0.10;;;;;;;;;;5126974;27;20200;-69
2021/05/22 12:39:50;;;;;;;0.00;0.00;;;;;;;;;;5126856;28;20304;-70
2021/05/22 12:42:20;;;;;;;0.10;0.10;;;;;;;;;;5127531;27;20199;-71
2021/05/22 12:44:47;;;;;;;0.03;0.03;;;;;;;;;;5136258;27;20214;-70
2021/05/22 12:47:13;;;;;;;0.20;0.20;;;;;;;;;;5126089;27;20206;-69
2021/05/22 12:49:50;;;;;;;0.10;0.10;;;;;;;;;;5125796;28;20210;-71
2021/05/22 12:52:15;;;;;;;0.10;0.10;;;;;;;;;;5119987;27;20256;-70
2021/05/22 12:54:42;;;;;;;0.10;0.10;;;;;;;;;;5136747;27;20203;-73
2021/05/22 12:57:10;;;;;;;0.20;0.20;;;;;;;;;;5124921;28;20201;-71
2021/05/22 12:59:38;;;;;;;0.10;0.10;;;;;;;;;;5128825;27;20221;-72
2021/05/22 13:02:15;;;;;;;0.07;0.07;;;;;;;;;;5128518;27;20207;-68
2021/05/22 13:04:42;;;;;;;0.10;0.10;;;;;;;;;;5133211;27;20238;-73
2021/05/22 13:07:08;;;;;;;0.07;0.07;;;;;;;;;;5125021;28;20305;-72
2021/05/22 13:09:33;;;;;;;0.10;0.10;;;;;;;;;;5131835;27;20397;-77
2021/05/22 13:12:00;;;;;;;0.10;0.10;;;;;;;;;;5122320;27;20276;-73
2021/05/22 13:14:41;;;;;;;0.10;0.10;;;;;;;;;;5122113;27;20207;-76
2021/05/22 13:17:07;;;;;;;0.07;0.07;;;;;;;;;;5128429;27;20207;-72
2021/05/22 13:19:40;;;;;;;0.10;0.10;;;;;;;;;;5128617;27;20486;-73
2021/05/22 13:22:27;;;;;;;0.10;0.10;;;;;;;;;;5130436;27;20221;-74
2021/05/22 13:24:56;;;;;;;0.00;0.00;;;;;;;;;;5122252;28;20198;-70
2021/05/22 13:27:22;;;;;;;0.00;0.00;;;;;;;;;;5125331;27;20369;-69
2021/05/22 13:29:52;;;;;;;0.10;0.10;;;;;;;;;;5127612;27;20237;-70
2021/05/22 13:32:19;;;;;;;0.10;0.10;;;;;;;;;;5124515;27;20229;-70
2021/05/22 13:34:45;;;;;;;0.10;0.10;;;;;;;;;;5131326;27;20202;-72
2021/05/22 13:37:10;;;;;;;0.10;0.10;;;;;;;;;;5129954;27;20230;-73
2021/05/22 13:39:36;;;;;;;0.10;0.10;;;;;;;;;;5124235;28;20390;-74
2021/05/22 13:42:02;;;;;;;0.10;0.10;;;;;;;;;;5123546;27;20525;-72
2021/05/22 13:44:29;;;;;;;0.10;0.10;;;;;;;;;;5124074;28;20409;-79
2021/05/22 13:46:54;;;;;;;0.10;0.10;;;;;;;;;;5123541;27;20372;-74
2021/05/22 13:49:21;;;;;;;0.03;0.03;;;;;;;;;;5124471;27;20241;-75
2021/05/22 13:51:48;;;;;;;0.10;0.10;;;;;;;;;;5123569;28;20210;-75
2021/05/22 13:54:14;;;;;;;0.07;0.07;;;;;;;;;;5124434;28;20204;-75
2021/05/22 13:56:40;;;;;;;0.10;0.10;;;;;;;;;;5128743;27;20496;-72
2021/05/22 13:59:06;;;;;;;0.03;0.03;;;;;;;;;;5120366;27;20209;-72
2021/05/22 14:01:31;;;;;;;0.10;0.10;;;;;;;;;;5127448;27;20233;-74
2021/05/22 14:03:57;;;;;;;0.00;0.00;;;;;;;;;;5124156;28;20203;-73
2021/05/22 14:06:24;;;;;;;0.10;0.10;;;;;;;;;;5117215;28;20245;-72
2021/05/22 14:08:50;;;;;;;0.10;0.10;;;;;;;;;;5114827;28;20218;-72
2021/05/22 14:11:16;;;;;;;0.07;0.07;;;;;;;;;;5117599;28;20201;-74
2021/05/22 14:13:41;;;;;;;0.10;0.10;;;;;;;;;;5123272;28;20223;-75
2021/05/22 14:16:07;;;;;;;0.10;0.10;;;;;;;;;;5118431;28;20214;-72
2021/05/22 14:18:34;;;;;;;0.10;0.10;;;;;;;;;;5123546;28;20207;-76
2021/05/22 14:21:00;;;;;;;0.10;0.10;;;;;;;;;;5116178;28;20471;-75
2021/05/22 14:23:27;;;;;;;0.10;0.10;;;;;;;;;;5123802;28;20243;-73
2021/05/22 14:25:53;;;;;;;0.10;0.10;;;;;;;;;;5131050;27;20225;-72
2021/05/22 14:28:18;;;;;;;0.10;0.10;;;;;;;;;;5123570;28;20387;-71
2021/05/22 14:30:44;;;;;;;0.10;0.10;;;;;;;;;;5125916;27;20234;-75
2021/05/22 14:33:10;;;;;;;0.10;0.10;;;;;;;;;;5123270;28;20414;-73
2021/05/22 14:35:36;;;;;;;0.10;0.10;;;;;;;;;;5126625;27;20452;-73
2021/05/22 14:38:02;;;;;;;0.10;0.10;;;;;;;;;;5123201;28;20489;-74
2021/05/22 14:40:29;;;;;;;0.10;0.10;;;;;;;;;;5122409;28;20448;-74
2021/05/22 14:42:55;;;;;;;0.10;0.10;;;;;;;;;;5125129;28;20205;-74